Ronnie Rogers — WDD2270 — position and weather

sailwx.info

Track history (hours):
 
Tides and Currents Weather Stations Pressure Air Temp Water Temp Dewpoint Dewpoint Depression Visibility Wind Speed Wind Dir Waves Ship Positions

Ronnie Rogers

Owner: Florida Marine, LLC, Mandeville, LA. More information available from US FCC via Universal Licensing System and Coast Guard Vessel Documentation Center.

Last reported at 2016-May-29 12:34 UTC. Time now 2016-May-29 13:32 UTC.
Position N 30°06' W 093°20'.

Length 27 m.

Type: Other ship. MMSI: 367113160.

Date/timePositionNaut miles runAvg speedWind from/ knotsBaromVisibWave heightAir tempDewpointWater temp
2016-May-29 12:34N 30°06' W 093°20'3 2.8
2016-May-29 11:33N 30°04' W 093°22'5 5.2
2016-May-29 10:33N 30°04' W 093°28'5 4.8
2016-May-29 09:33N 30°04' W 093°33'5 5.0
2016-May-29 08:33N 30°04' W 093°39'5 4.7
2016-May-29 07:31N 30°02' W 093°44'4 4.3
2016-May-29 06:32N 29°59' W 093°48'3 3.5
2016-May-29 05:33N 29°59' W 093°52'6 5.2
2016-May-29 04:21N 30°01' W 093°59'0 0.2
2016-May-29 03:11N 30°01' W 093°59'0 0.0
2016-May-29 02:25N 30°01' W 093°59'0 0.0
2016-May-28 14:10N 30°01' W 093°59'0 0.0
2016-May-28 13:30N 30°01' W 093°59'0 0.0
2016-May-28 12:33N 30°01' W 093°59'0 0.0
2016-May-28 11:33N 30°01' W 093°59'0 0.0
2016-May-28 08:15N 30°01' W 093°59'0 0.0
2016-May-28 07:33N 30°01' W 093°59'0 0.0
2016-May-26 14:14N 30°01' W 093°59'10 4.9
2016-May-26 12:07N 29°60' W 093°47'4 6.0
2016-May-26 11:26N 30°03' W 093°44'5 6.1
2016-May-26 10:34N 30°04' W 093°38'5 5.3
2016-May-26 09:33N 30°04' W 093°32'5 4.7
2016-May-26 08:34N 30°04' W 093°26'5 4.8
2016-May-26 07:33N 30°04' W 093°21'2 1.7
2016-May-26 06:33N 30°05' W 093°20'3 3.0
2016-May-26 05:33N 30°08' W 093°19'0 0.0
2016-May-26 04:34N 30°08' W 093°19'0 0.0
2016-May-26 03:34N 30°08' W 093°19'0 0.0
2016-May-26 02:33N 30°08' W 093°19'0 0.0
2016-May-26 01:34N 30°08' W 093°19'0 0.0
2016-May-26 00:34N 30°08' W 093°19'0 0.0
2016-May-25 23:33N 30°08' W 093°19'0 0.0
2016-May-25 22:33N 30°08' W 093°19'0 0.0
2016-May-25 21:33N 30°08' W 093°19'0 0.0
2016-May-25 20:34N 30°08' W 093°19'0 0.0
2016-May-25 19:33N 30°08' W 093°19'0 0.0
2016-May-25 18:34N 30°08' W 093°19'0 0.0
2016-May-25 17:33N 30°08' W 093°19'0 0.0
2016-May-25 16:33N 30°08' W 093°19'0 0.0
2016-May-25 15:33N 30°08' W 093°19'0 0.0
2016-May-25 14:34N 30°08' W 093°19'0 0.0
2016-May-25 13:34N 30°08' W 093°19'0 0.0
2016-May-25 12:33N 30°08' W 093°19'0 0.0
2016-May-25 11:34N 30°08' W 093°19'0 0.0
2016-May-25 10:33N 30°08' W 093°19'0 0.0
2016-May-25 09:33N 30°08' W 093°19'0 0.0
2016-May-25 08:33N 30°08' W 093°19'0 0.0
2016-May-25 07:34N 30°08' W 093°19'0 0.0
2016-May-25 06:34N 30°08' W 093°19'0 0.0
2016-May-25 05:34N 30°08' W 093°19'0 0.1
2016-May-25 04:33N 30°08' W 093°19'0 0.1
2016-May-25 03:34N 30°08' W 093°19'2 1.8
2016-May-25 02:34N 30°06' W 093°20'3 2.6
2016-May-25 01:34N 30°04' W 093°21'1 0.9
2016-May-25 00:34N 30°05' W 093°20'0 0.0
2016-May-24 23:33N 30°05' W 093°20'0 0.0
2016-May-24 22:33N 30°05' W 093°20'0 0.0
2016-May-24 21:33N 30°05' W 093°20'0 0.0
2016-May-24 20:33N 30°05' W 093°20'0 0.0
2016-May-24 19:34N 30°05' W 093°20'0 0.0
2016-May-24 18:33N 30°05' W 093°20'0 0.0
2016-May-24 17:33N 30°05' W 093°20'0 0.0
2016-May-24 16:34N 30°05' W 093°20'1 0.5
2016-May-24 15:33N 30°05' W 093°20'0 0.0
2016-May-24 14:34N 30°05' W 093°20'1 0.5
2016-May-24 13:34N 30°05' W 093°20'0 0.0
2016-May-24 12:34N 30°05' W 093°20'0 0.0
2016-May-24 11:34N 30°05' W 093°20'0 0.0
2016-May-24 10:33N 30°05' W 093°20'0 0.0
2016-May-24 09:34N 30°05' W 093°20'0 0.0
2016-May-24 08:34N 30°05' W 093°20'0 0.0
2016-May-24 07:33N 30°05' W 093°20'0 0.0
2016-May-24 06:33N 30°05' W 093°20'0 0.0
2016-May-24 05:34N 30°05' W 093°20'0 0.0
2016-May-24 04:34N 30°05' W 093°20'0 0.0
2016-May-24 03:33N 30°05' W 093°20'1 0.6
2016-May-24 02:33N 30°05' W 093°20'1 0.8
2016-May-24 01:33N 30°05' W 093°20'4 4.0
2016-May-24 00:34N 30°04' W 093°25'5 4.9
2016-May-23 23:33N 30°04' W 093°31'6 5.5
2016-May-23 22:33N 30°04' W 093°37'6 5.9
2016-May-23 21:34N 30°03' W 093°44'14 1.9
2016-May-23 14:13N 30°01' W 093°59'0 0.0
2016-May-23 12:08N 30°01' W 093°59'0 0.0
2016-May-23 11:28N 30°01' W 093°59'0 0.0
2016-May-23 09:29N 30°01' W 093°59'0 0.0
2016-May-23 08:33N 30°01' W 093°59'0 0.0
2016-May-23 07:32N 30°01' W 093°59'0 0.0
2016-May-23 06:33N 30°01' W 093°59'0 0.0
2016-May-23 05:33N 30°01' W 093°59'0 0.0
2016-May-23 04:33N 30°01' W 093°59'0 0.0
2016-May-23 03:31N 30°01' W 093°59'0 0.0
2016-May-23 02:20N 30°01' W 093°59'0 0.0
2016-May-22 16:05N 30°01' W 093°59'8 4.6
2016-May-22 14:27N 29°58' W 093°51'6 6.7
2016-May-22 13:33N 30°01' W 093°45'6 5.8
2016-May-22 12:33N 30°04' W 093°39'6 5.6
2016-May-22 11:33N 30°04' W 093°32'6 5.5
2016-May-22 10:34N 30°04' W 093°26'4 4.2
2016-May-22 09:34N 30°04' W 093°21'5 4.6
2016-May-22 08:34N 30°08' W 093°19'0 0.1
2016-May-22 07:33N 30°08' W 093°19'0 0.0
2016-May-22 06:33N 30°08' W 093°19'0 0.0
2016-May-22 05:34N 30°08' W 093°19'0 0.0
2016-May-22 04:34N 30°08' W 093°19'0 0.0
2016-May-22 03:33N 30°08' W 093°19'0 0.0
2016-May-22 02:33N 30°08' W 093°19'0 0.0
2016-May-22 01:34N 30°08' W 093°19'0 0.0
2016-May-22 00:34N 30°08' W 093°19'0 0.0
2016-May-21 23:34N 30°08' W 093°19'0 0.0
2016-May-21 22:33N 30°08' W 093°19'0 0.0
2016-May-21 21:34N 30°08' W 093°19'0 0.0
2016-May-21 20:33N 30°08' W 093°19'0 0.0
2016-May-21 19:33N 30°08' W 093°19'0 0.0
2016-May-21 18:33N 30°08' W 093°19'0 0.0
2016-May-21 17:33N 30°08' W 093°19'0 0.0
2016-May-21 16:33N 30°08' W 093°19'0 0.0
2016-May-21 15:33N 30°08' W 093°19'0 0.0
2016-May-21 14:33N 30°08' W 093°19'0 0.0
2016-May-21 13:33N 30°08' W 093°19'0 0.0
2016-May-21 12:33N 30°08' W 093°19'0 0.0
2016-May-21 11:34N 30°08' W 093°19'0 0.0
2016-May-21 10:34N 30°08' W 093°19'0 0.0
2016-May-21 09:34N 30°08' W 093°19'0 0.3
2016-May-21 08:34N 30°08' W 093°19'1 0.5
2016-May-21 07:34N 30°08' W 093°20'3 2.9
2016-May-21 06:33N 30°05' W 093°20'2 2.0
2016-May-21 05:33N 30°04' W 093°22'0 0.0
2016-May-21 04:34N 30°04' W 093°22'0 0.0
2016-May-21 03:34N 30°04' W 093°22'0 0.0
2016-May-21 02:33N 30°04' W 093°22'0 0.0
2016-May-21 01:34N 30°04' W 093°22'0 0.0
2016-May-21 00:34N 30°04' W 093°22'0 0.0
2016-May-20 23:33N 30°04' W 093°22'2 2.1
2016-May-20 22:33N 30°05' W 093°20'0 0.0
2016-May-20 21:33N 30°05' W 093°20'0 0.0
2016-May-20 20:34N 30°05' W 093°20'0 0.0
2016-May-20 19:33N 30°05' W 093°20'0 0.0
2016-May-20 18:33N 30°05' W 093°20'0 0.0
2016-May-20 17:33N 30°05' W 093°20'0 0.0
2016-May-20 16:33N 30°05' W 093°20'0 0.0
2016-May-20 15:34N 30°05' W 093°20'0 0.0
2016-May-20 14:34N 30°05' W 093°20'0 0.0
2016-May-20 13:34N 30°05' W 093°20'0 0.0
2016-May-20 12:34N 30°05' W 093°20'0 0.0
2016-May-20 11:34N 30°05' W 093°20'0 0.0
2016-May-20 10:34N 30°05' W 093°20'0 0.0
2016-May-20 09:33N 30°05' W 093°20'1 0.8
2016-May-20 08:33N 30°04' W 093°21'0 0.0
2016-May-20 07:33N 30°04' W 093°21'0 0.0
2016-May-20 06:33N 30°04' W 093°21'1 0.7
2016-May-20 05:34N 30°05' W 093°20'0 0.1
2016-May-20 04:33N 30°05' W 093°20'0 0.0
2016-May-20 03:34N 30°05' W 093°20'0 0.0
2016-May-20 02:34N 30°05' W 093°20'0 0.0
2016-May-20 01:34N 30°05' W 093°20'0 0.0
2016-May-20 00:33N 30°05' W 093°20'0 0.0
2016-May-19 23:33N 30°05' W 093°20'0 0.0
2016-May-19 22:33N 30°05' W 093°20'0 0.0
2016-May-19 21:34N 30°05' W 093°20'0 0.0
2016-May-19 20:34N 30°05' W 093°20'0 0.3
2016-May-19 19:33N 30°05' W 093°20'0 0.0
2016-May-19 18:34N 30°05' W 093°20'0 0.0
2016-May-19 17:33N 30°05' W 093°20'0 0.0
2016-May-19 16:34N 30°05' W 093°20'0 0.4
2016-May-19 15:33N 30°05' W 093°20'0 0.0
2016-May-19 14:33N 30°05' W 093°20'0 0.0
2016-May-19 13:33N 30°05' W 093°20'  
Track history (hours):
 
Tides and Currents Weather Stations Pressure Air Temp Water Temp Dewpoint Dewpoint Depression Visibility Wind Speed Wind Dir Waves Ship Positions

Ronnie Rogers

Owner: Florida Marine, LLC, Mandeville, LA. More information available from US FCC via Universal Licensing System and Coast Guard Vessel Documentation Center.

Last reported at 2016-May-29 12:34 UTC. Time now 2016-May-29 13:32 UTC.
Position N 30°06' W 093°20'.

Length 27 m.

Type: Other ship. MMSI: 367113160.

Date/timePositionNaut miles runAvg speedWind from/ knotsBaromVisibWave heightAir tempDewpointWater temp
2016-May-29 12:34N 30°06' W 093°20'3 2.8
2016-May-29 11:33N 30°04' W 093°22'5 5.2
2016-May-29 10:33N 30°04' W 093°28'5 4.8
2016-May-29 09:33N 30°04' W 093°33'5 5.0
2016-May-29 08:33N 30°04' W 093°39'5 4.7
2016-May-29 07:31N 30°02' W 093°44'4 4.3
2016-May-29 06:32N 29°59' W 093°48'3 3.5
2016-May-29 05:33N 29°59' W 093°52'6 5.2
2016-May-29 04:21N 30°01' W 093°59'0 0.2
2016-May-29 03:11N 30°01' W 093°59'0 0.0
2016-May-29 02:25N 30°01' W 093°59'0 0.0
2016-May-28 14:10N 30°01' W 093°59'0 0.0
2016-May-28 13:30N 30°01' W 093°59'0 0.0
2016-May-28 12:33N 30°01' W 093°59'0 0.0
2016-May-28 11:33N 30°01' W 093°59'0 0.0
2016-May-28 08:15N 30°01' W 093°59'0 0.0
2016-May-28 07:33N 30°01' W 093°59'0 0.0
2016-May-26 14:14N 30°01' W 093°59'10 4.9
2016-May-26 12:07N 29°60' W 093°47'4 6.0
2016-May-26 11:26N 30°03' W 093°44'5 6.1
2016-May-26 10:34N 30°04' W 093°38'5 5.3
2016-May-26 09:33N 30°04' W 093°32'5 4.7
2016-May-26 08:34N 30°04' W 093°26'5 4.8
2016-May-26 07:33N 30°04' W 093°21'2 1.7
2016-May-26 06:33N 30°05' W 093°20'3 3.0
2016-May-26 05:33N 30°08' W 093°19'0 0.0
2016-May-26 04:34N 30°08' W 093°19'0 0.0
2016-May-26 03:34N 30°08' W 093°19'0 0.0
2016-May-26 02:33N 30°08' W 093°19'0 0.0
2016-May-26 01:34N 30°08' W 093°19'0 0.0
2016-May-26 00:34N 30°08' W 093°19'0 0.0
2016-May-25 23:33N 30°08' W 093°19'0 0.0
2016-May-25 22:33N 30°08' W 093°19'0 0.0
2016-May-25 21:33N 30°08' W 093°19'0 0.0
2016-May-25 20:34N 30°08' W 093°19'0 0.0
2016-May-25 19:33N 30°08' W 093°19'0 0.0
2016-May-25 18:34N 30°08' W 093°19'0 0.0
2016-May-25 17:33N 30°08' W 093°19'0 0.0
2016-May-25 16:33N 30°08' W 093°19'0 0.0
2016-May-25 15:33N 30°08' W 093°19'0 0.0
2016-May-25 14:34N 30°08' W 093°19'0 0.0
2016-May-25 13:34N 30°08' W 093°19'0 0.0
2016-May-25 12:33N 30°08' W 093°19'0 0.0
2016-May-25 11:34N 30°08' W 093°19'0 0.0
2016-May-25 10:33N 30°08' W 093°19'0 0.0
2016-May-25 09:33N 30°08' W 093°19'0 0.0
2016-May-25 08:33N 30°08' W 093°19'0 0.0
2016-May-25 07:34N 30°08' W 093°19'0 0.0
2016-May-25 06:34N 30°08' W 093°19'0 0.0
2016-May-25 05:34N 30°08' W 093°19'0 0.1
2016-May-25 04:33N 30°08' W 093°19'0 0.1
2016-May-25 03:34N 30°08' W 093°19'2 1.8
2016-May-25 02:34N 30°06' W 093°20'3 2.6
2016-May-25 01:34N 30°04' W 093°21'1 0.9
2016-May-25 00:34N 30°05' W 093°20'0 0.0
2016-May-24 23:33N 30°05' W 093°20'0 0.0
2016-May-24 22:33N 30°05' W 093°20'0 0.0
2016-May-24 21:33N 30°05' W 093°20'0 0.0
2016-May-24 20:33N 30°05' W 093°20'0 0.0
2016-May-24 19:34N 30°05' W 093°20'0 0.0
2016-May-24 18:33N 30°05' W 093°20'0 0.0
2016-May-24 17:33N 30°05' W 093°20'0 0.0
2016-May-24 16:34N 30°05' W 093°20'1 0.5
2016-May-24 15:33N 30°05' W 093°20'0 0.0
2016-May-24 14:34N 30°05' W 093°20'1 0.5
2016-May-24 13:34N 30°05' W 093°20'0 0.0
2016-May-24 12:34N 30°05' W 093°20'0 0.0
2016-May-24 11:34N 30°05' W 093°20'0 0.0
2016-May-24 10:33N 30°05' W 093°20'0 0.0
2016-May-24 09:34N 30°05' W 093°20'0 0.0
2016-May-24 08:34N 30°05' W 093°20'0 0.0
2016-May-24 07:33N 30°05' W 093°20'0 0.0
2016-May-24 06:33N 30°05' W 093°20'0 0.0
2016-May-24 05:34N 30°05' W 093°20'0 0.0
2016-May-24 04:34N 30°05' W 093°20'0 0.0
2016-May-24 03:33N 30°05' W 093°20'1 0.6
2016-May-24 02:33N 30°05' W 093°20'1 0.8
2016-May-24 01:33N 30°05' W 093°20'4 4.0
2016-May-24 00:34N 30°04' W 093°25'5 4.9
2016-May-23 23:33N 30°04' W 093°31'6 5.5
2016-May-23 22:33N 30°04' W 093°37'6 5.9
2016-May-23 21:34N 30°03' W 093°44'14 1.9
2016-May-23 14:13N 30°01' W 093°59'0 0.0
2016-May-23 12:08N 30°01' W 093°59'0 0.0
2016-May-23 11:28N 30°01' W 093°59'0 0.0
2016-May-23 09:29N 30°01' W 093°59'0 0.0
2016-May-23 08:33N 30°01' W 093°59'0 0.0
2016-May-23 07:32N 30°01' W 093°59'0 0.0
2016-May-23 06:33N 30°01' W 093°59'0 0.0
2016-May-23 05:33N 30°01' W 093°59'0 0.0
2016-May-23 04:33N 30°01' W 093°59'0 0.0
2016-May-23 03:31N 30°01' W 093°59'0 0.0
2016-May-23 02:20N 30°01' W 093°59'0 0.0
2016-May-22 16:05N 30°01' W 093°59'8 4.6
2016-May-22 14:27N 29°58' W 093°51'6 6.7
2016-May-22 13:33N 30°01' W 093°45'6 5.8
2016-May-22 12:33N 30°04' W 093°39'6 5.6
2016-May-22 11:33N 30°04' W 093°32'6 5.5
2016-May-22 10:34N 30°04' W 093°26'4 4.2
2016-May-22 09:34N 30°04' W 093°21'5 4.6
2016-May-22 08:34N 30°08' W 093°19'0 0.1
2016-May-22 07:33N 30°08' W 093°19'0 0.0
2016-May-22 06:33N 30°08' W 093°19'0 0.0
2016-May-22 05:34N 30°08' W 093°19'0 0.0
2016-May-22 04:34N 30°08' W 093°19'0 0.0
2016-May-22 03:33N 30°08' W 093°19'0 0.0
2016-May-22 02:33N 30°08' W 093°19'0 0.0
2016-May-22 01:34N 30°08' W 093°19'0 0.0
2016-May-22 00:34N 30°08' W 093°19'0 0.0
2016-May-21 23:34N 30°08' W 093°19'0 0.0
2016-May-21 22:33N 30°08' W 093°19'0 0.0
2016-May-21 21:34N 30°08' W 093°19'0 0.0
2016-May-21 20:33N 30°08' W 093°19'0 0.0
2016-May-21 19:33N 30°08' W 093°19'0 0.0
2016-May-21 18:33N 30°08' W 093°19'0 0.0
2016-May-21 17:33N 30°08' W 093°19'0 0.0
2016-May-21 16:33N 30°08' W 093°19'0 0.0
2016-May-21 15:33N 30°08' W 093°19'0 0.0
2016-May-21 14:33N 30°08' W 093°19'0 0.0
2016-May-21 13:33N 30°08' W 093°19'0 0.0
2016-May-21 12:33N 30°08' W 093°19'0 0.0
2016-May-21 11:34N 30°08' W 093°19'0 0.0
2016-May-21 10:34N 30°08' W 093°19'0 0.0
2016-May-21 09:34N 30°08' W 093°19'0 0.3
2016-May-21 08:34N 30°08' W 093°19'1 0.5
2016-May-21 07:34N 30°08' W 093°20'3 2.9
2016-May-21 06:33N 30°05' W 093°20'2 2.0
2016-May-21 05:33N 30°04' W 093°22'0 0.0
2016-May-21 04:34N 30°04' W 093°22'0 0.0
2016-May-21 03:34N 30°04' W 093°22'0 0.0
2016-May-21 02:33N 30°04' W 093°22'0 0.0
2016-May-21 01:34N 30°04' W 093°22'0 0.0
2016-May-21 00:34N 30°04' W 093°22'0 0.0
2016-May-20 23:33N 30°04' W 093°22'2 2.1
2016-May-20 22:33N 30°05' W 093°20'0 0.0
2016-May-20 21:33N 30°05' W 093°20'0 0.0
2016-May-20 20:34N 30°05' W 093°20'0 0.0
2016-May-20 19:33N 30°05' W 093°20'0 0.0
2016-May-20 18:33N 30°05' W 093°20'0 0.0
2016-May-20 17:33N 30°05' W 093°20'0 0.0
2016-May-20 16:33N 30°05' W 093°20'0 0.0
2016-May-20 15:34N 30°05' W 093°20'0 0.0
2016-May-20 14:34N 30°05' W 093°20'0 0.0
2016-May-20 13:34N 30°05' W 093°20'0 0.0
2016-May-20 12:34N 30°05' W 093°20'0 0.0
2016-May-20 11:34N 30°05' W 093°20'0 0.0
2016-May-20 10:34N 30°05' W 093°20'0 0.0
2016-May-20 09:33N 30°05' W 093°20'1 0.8
2016-May-20 08:33N 30°04' W 093°21'0 0.0
2016-May-20 07:33N 30°04' W 093°21'0 0.0
2016-May-20 06:33N 30°04' W 093°21'1 0.7
2016-May-20 05:34N 30°05' W 093°20'0 0.1
2016-May-20 04:33N 30°05' W 093°20'0 0.0
2016-May-20 03:34N 30°05' W 093°20'0 0.0
2016-May-20 02:34N 30°05' W 093°20'0 0.0
2016-May-20 01:34N 30°05' W 093°20'0 0.0
2016-May-20 00:33N 30°05' W 093°20'0 0.0
2016-May-19 23:33N 30°05' W 093°20'0 0.0
2016-May-19 22:33N 30°05' W 093°20'0 0.0
2016-May-19 21:34N 30°05' W 093°20'0 0.0
2016-May-19 20:34N 30°05' W 093°20'0 0.3
2016-May-19 19:33N 30°05' W 093°20'0 0.0
2016-May-19 18:34N 30°05' W 093°20'0 0.0
2016-May-19 17:33N 30°05' W 093°20'0 0.0
2016-May-19 16:34N 30°05' W 093°20'0 0.4
2016-May-19 15:33N 30°05' W 093°20'0 0.0
2016-May-19 14:33N 30°05' W 093°20'0 0.0
2016-May-19 13:33N 30°05' W 093°20'  

Dump ship's entire track history